< Typhoon 197223 1972 Season Typhoon 197225 >
Typhoon 197224 (MARIE)
General InformationTrack Information on Google Maps || Disaster Info.ResourceGoogle EarthGE AnimationAtom FeedGeoJSON
Detalied Best Track (Time Zone = UTC)
Year Month Day Hour Lat. Long. Pressure (hPa) Wind (kt) Class Image Chart
1972 10 5 06 14.4 168.0 985 0 9 -- Chart
1972 10 5 12 14.3 167.1 985 0 9 -- Chart
1972 10 5 18 14.2 166.3 975 0 9 -- Chart
1972 10 6 00 14.0 165.4 975 0 9 -- Chart
1972 10 6 06 14.0 164.4 970 0 9 -- Chart
1972 10 6 12 14.4 163.2 970 0 9 -- Chart
1972 10 6 18 14.6 161.6 965 0 9 -- Chart
1972 10 7 00 14.9 160.2 965 0 9 -- Chart
1972 10 7 06 15.2 158.4 960 0 9 -- Chart
1972 10 7 12 15.4 156.6 955 0 9 -- Chart
1972 10 7 18 15.9 155.1 955 0 9 -- Chart
1972 10 8 00 16.4 153.3 950 0 9 -- Chart
1972 10 8 06 17.0 151.7 950 0 9 -- Chart
1972 10 8 12 17.3 149.8 950 0 9 -- Chart
1972 10 8 18 17.6 148.3 945 0 9 -- Chart
1972 10 9 00 18.1 147.4 940 0 9 -- Chart
1972 10 9 06 18.7 146.8 935 0 9 -- Chart
1972 10 9 12 19.4 145.6 935 0 9 -- Chart
1972 10 9 18 19.9 145.0 940 0 9 -- Chart
1972 10 10 00 20.5 144.4 945 0 9 -- Chart
1972 10 10 06 21.4 144.1 945 0 9 -- Chart
1972 10 10 12 22.6 144.0 940 0 9 -- Chart
1972 10 10 18 24.2 143.9 940 0 9 -- Chart
1972 10 11 00 25.7 144.2 945 0 9 -- Chart
1972 10 11 06 27.4 144.4 950 0 9 -- Chart
1972 10 11 12 29.7 144.9 955 0 9 -- Chart
1972 10 11 18 32.0 145.6 960 0 9 -- Chart
1972 10 12 00 34.5 146.8 965 0 9 -- Chart
1972 10 12 06 37.4 148.7 965 0 9 -- Chart
1972 10 12 12 41.0 151.0 965 0 9 -- Chart
1972 10 12 18 44.0 152.5 976 0 6 -- Chart
1972 10 13 00 46.0 153.0 980 0 6 -- Chart
1972 10 13 06 47.5 153.2 980 0 6 -- Chart
1972 10 13 12 48.6 153.3 962 0 6 -- Chart
1972 10 13 18 49.0 152.0 976 0 6 -- Chart
1972 10 14 00 49.0 151.0 980 0 6 -- Chart
1972 10 14 06 49.4 150.0 982 0 6 -- Chart
1972 10 14 12 49.5 149.0 986 0 6 -- Chart
1972 10 14 18 48.9 149.4 990 0 6 -- Chart
1972 10 15 00 48.9 150.5 996 0 6 -- Chart
1972 10 15 06 49.2 151.7 998 0 6 -- Chart
1972 10 15 12 49.6 152.4 1000 0 6 -- Chart
1972 10 15 18 50.3 152.8 1004 0 6 -- Chart
1972 10 16 00 51.1 153.3 1006 0 6 -- Chart
1972 10 16 06 52.0 154.2 1006 0 6 -- Chart
Japan Meteorological Agency Best Track Data | Correction Date : 1989-06-01
< Typhoon 197223 1972 Season Typhoon 197225 >

Help